Flight Track Log - Related Links

Times and Time Zones

All times are in EDT time to prevent confusion due to time zone crossing. See the N825ST flight status page for this flight to view local times or setup timezone preferences in your user account.


Time Position Orientation Groundspeed Altitude Reporting Facility
EDT Latitude Longitude Course Direction KTS MPH feet Rate Location/Type
Mon 06:47:43 PM 34.6819 -94.1731 North 281 323 8,000  Level Memphis Center
Mon 06:48:43 PM 34.7489 -94.1736 360° North 263 303 9,700 1,700 Climbing Memphis Center
Mon 06:49:43 PM 34.8000 -94.2011 336° Northwest 228 262 11,400 1,650 Climbing Memphis Center
Mon 06:50:43 PM 34.8575 -94.2367 333° Northwest 222 255 13,000 1,450 Climbing Memphis Center
Mon 06:51:00 PM 34.9084 -94.1510 North  Level FlightAware Approximate
Mon 06:51:43 PM 34.9025 -94.2617 336° Northwest 222 255 14,300  Level Memphis Center
Mon 06:52:00 PM 34.9840 -94.1500 North  Level FlightAware Approximate
Mon 06:52:43 PM 34.9711 -94.2672 356° North 204 235 16,400  Level Memphis Center
Mon 06:53:43 PM 35.0317 -94.2675 360° North 204 235 17,800 1,500 Climbing Memphis Center
Mon 06:54:43 PM 35.0900 -94.2703 358° North 199 229 19,400 1,550 Climbing Memphis Center
Mon 06:55:43 PM 35.1506 -94.2706 360° North 204 235 20,900 1,250 Climbing Memphis Center
Mon 06:56:43 PM 35.2089 -94.2681 North 204 235 21,900 500 Climbing Memphis Center
Mon 06:57:43 PM 35.2822 -94.2639 North 227 261 21,900 50 Level Memphis Center
Mon 06:58:43 PM 35.3594 -94.2547 North 256 295 22,000  Climbing Memphis Center
Mon 06:59:43 PM 35.4392 -94.2458 North 278 320 21,900 200 Descending Memphis Center
Mon 07:00:43 PM 35.5144 -94.2392 North 285 328 22,400 500 Climbing Memphis Center
Mon 07:01:43 PM 35.5856 -94.2297 North 268 308 22,900 250 Climbing Memphis Center
Mon 07:02:43 PM 35.6544 -94.2253 North 263 303 22,900  Level Memphis Center
Mon 07:03:43 PM 35.7300 -94.2158 North 269 310 22,900  Level Memphis Center
Mon 07:04:43 PM 35.8094 -94.2069 North 275 316 22,900  Level Memphis Center
Mon 07:07:15 PM 36.0050 -94.1850 North 279 321 22,900  Level Kansas City Center
Mon 07:08:17 PM 36.0822 -94.1739 North 279 321 22,900  Level Kansas City Center
Mon 07:09:19 PM 36.1581 -94.1672 North 276 318 22,900  Level Kansas City Center
Mon 07:10:21 PM 36.2492 -94.1575 North 275 316 22,900  Level Kansas City Center
Mon 07:11:23 PM 36.3247 -94.1492 North 274 315 22,900  Level Kansas City Center
Mon 07:12:25 PM 36.4011 -94.1406 North 275 316 22,900  Level Kansas City Center
Mon 07:13:27 PM 36.4761 -94.1328 North 272 313 22,900  Level Kansas City Center
Mon 07:14:29 PM 36.5519 -94.1233 North 273 314 22,900  Level Kansas City Center
Mon 07:15:31 PM 36.6281 -94.1161 North 273 314 22,900  Level Kansas City Center
Mon 07:16:33 PM 36.7186 -94.1061 North 273 314 22,900  Level Kansas City Center
Mon 07:17:35 PM 36.7939 -94.0983 North 272 313 22,900  Level Kansas City Center
Mon 07:18:37 PM 36.8700 -94.0892 North 274 315 22,900  Level Kansas City Center
Mon 07:19:39 PM 36.9453 -94.0808 North 272 313 22,900  Level Kansas City Center
Mon 07:20:41 PM 37.0222 -94.0717 North 276 318 22,900  Level Kansas City Center
Mon 07:21:43 PM 37.0978 -94.0628 North 275 316 22,900  Level Kansas City Center
Mon 07:22:45 PM 37.1775 -94.0544 North 274 315 22,900  Level Kansas City Center
Mon 07:23:47 PM 37.2556 -94.0442 North 278 320 22,900  Level Kansas City Center
Mon 07:24:49 PM 37.3475 -94.0358 North 276 318 22,900 48 Level Kansas City Center
Mon 07:25:51 PM 37.4239 -94.0258 North 275 316 23,000 48 Climbing Kansas City Center
Mon 07:26:53 PM 37.5003 -94.0186 North 274 315 23,000  Level Kansas City Center
Mon 07:27:55 PM 37.5767 -94.0086 North 275 316 23,000  Level Kansas City Center
Mon 07:28:57 PM 37.6531 -93.9992 North 277 319 23,000  Level Kansas City Center
Mon 07:29:59 PM 37.7297 -93.9897 North 276 318 23,000  Level Kansas City Center
Mon 07:31:01 PM 37.8064 -93.9811 North 276 318 23,000  Level Kansas City Center
Mon 07:32:03 PM 37.9003 -93.9692 North 279 321 23,000  Level Kansas City Center
Mon 07:33:05 PM 37.9764 -93.9619 North 276 318 23,000  Level Kansas City Center
Mon 07:34:07 PM 38.0531 -93.9531 North 276 318 23,000  Level Kansas City Center
Mon 07:35:09 PM 38.1306 -93.9453 North 276 318 23,000  Level Kansas City Center
Mon 07:36:11 PM 38.2083 -93.9331 North 279 321 23,000  Level Kansas City Center
Mon 07:37:14 PM 38.2861 -93.9244 North 280 322 23,000  Level Kansas City Center
Mon 07:38:16 PM 38.3636 -93.9158 North 279 321 23,000  Level Kansas City Center
Mon 07:39:18 PM 38.4556 -93.9058 North 277 319 23,000  Level Kansas City Center
Mon 07:40:20 PM 38.5225 -93.8953 North 276 318 23,000  Level Kansas City Center
Mon 07:41:22 PM 38.6078 -93.8875 North 275 316 23,000  Level Kansas City Center
Mon 07:42:24 PM 38.6822 -93.8789 North 279 321 23,000  Level Kansas City Center
Mon 07:43:26 PM 38.7681 -93.8683 North 279 321 23,000  Level Kansas City Center
Mon 07:44:28 PM 38.8425 -93.8578 North 280 322 23,000  Level Kansas City Center
Mon 07:45:30 PM 38.9306 -93.8481 North 284 327 23,000  Level Kansas City Center
Mon 07:46:32 PM 39.0058 -93.8394 North 284 327 23,000  Level Kansas City Center
Mon 07:47:34 PM 39.0922 -93.8300 North 280 322 23,000  Level Kansas City Center
Mon 07:48:36 PM 39.1656 -93.8208 North 278 320 23,000  Level Kansas City Center
Mon 07:49:38 PM 39.2511 -93.8083 North 278 320 23,000  Level Kansas City Center
Mon 07:50:40 PM 39.3208 -93.8011 North 267 307 23,000  Level Kansas City Center
Mon 07:51:42 PM 39.3994 -93.7911 North 257 296 23,000  Level Kansas City Center
Mon 07:52:44 PM 39.4681 -93.7844 North 257 296 23,000  Level Kansas City Center
Mon 07:53:46 PM 39.5478 -93.7739 North 257 296 23,000  Level Kansas City Center
Mon 07:54:48 PM 39.6158 -93.7639 North 257 296 23,000  Level Kansas City Center
Mon 07:55:50 PM 39.6958 -93.7572 North 258 297 23,000  Level Kansas City Center
Mon 07:56:52 PM 39.7636 -93.7472 North 256 295 23,000  Level Kansas City Center
Mon 07:57:54 PM 39.8411 -93.7358 North 256 295 23,000  Level Kansas City Center
Mon 07:58:56 PM 39.9119 -93.7286 North 257 296 23,000  Level Kansas City Center
Mon 07:59:58 PM 39.9831 -93.7219 North 257 296 23,000  Level Kansas City Center
Mon 08:01:00 PM 40.0547 -93.7097 North 260 299 23,000  Level Kansas City Center
Mon 08:02:02 PM 40.1261 -93.7039 North 259 298 23,000  Level Kansas City Center
Mon 08:03:04 PM 40.2100 -93.6911 North 257 296 23,000  Level Kansas City Center
Mon 08:04:06 PM 40.2842 -93.6833 North 263 303 23,000  Level Kansas City Center
Mon 08:05:08 PM 40.3567 -93.6758 North 264 304 23,000  Level Kansas City Center
Mon 08:05:55 PM 40.4156 -93.6675 North 268 308 23,000  Level Minneapolis Center
Mon 08:06:44 PM 40.4764 -93.6603 North 271 312 23,000  Level Minneapolis Center
Mon 08:07:46 PM 40.5514 -93.6500 North 272 313 23,000  Level Minneapolis Center
Mon 08:08:48 PM 40.6256 -93.6419 North 269 310 23,000  Level Minneapolis Center
Mon 08:09:50 PM 40.7003 -93.6319 North 272 313 23,000  Level Minneapolis Center
Mon 08:10:52 PM 40.7914 -93.6217 North 273 314 23,000  Level Minneapolis Center
Mon 08:11:53 PM 40.8667 -93.6092 North 274 315 23,000  Level Minneapolis Center
Mon 08:12:55 PM 40.9406 -93.5997 North 271 312 23,000  Level Minneapolis Center
Mon 08:13:57 PM 41.0161 -93.5908 North 272 313 23,000  Level Minneapolis Center
Mon 08:14:59 PM 41.0911 -93.5817 North 272 313 23,000  Level Minneapolis Center
Mon 08:16:00 PM 41.1650 -93.5747 North 271 312 23,000  Level Minneapolis Center
Mon 08:17:27 PM 41.2825 -93.5750 360° North 266 306 23,000  Level Minneapolis Center
Mon 08:18:29 PM 41.3569 -93.5750 360° North 266 306 23,000  Level Minneapolis Center
Mon 08:19:30 PM 41.4297 -93.5744 360° North 266 306 23,000  Level Minneapolis Center
Mon 08:20:44 PM 41.5042 -93.5733 North 267 307 23,000  Level Minneapolis Center
Mon 08:21:46 PM 41.5922 -93.5742 360° North 267 307 23,000  Level Minneapolis Center
Mon 08:22:48 PM 41.6794 -93.5731 North 264 304 23,000  Level Minneapolis Center
Mon 08:23:50 PM 41.7517 -93.5703 North 261 300 23,000  Level Minneapolis Center
Mon 08:24:51 PM 41.8239 -93.5719 359° North 261 300 23,000  Level Minneapolis Center
Mon 08:25:53 PM 41.8981 -93.5692 North 262 302 23,000  Level Minneapolis Center
Mon 08:26:55 PM 41.9711 -93.5678 North 260 299 23,000  Level Minneapolis Center
Mon 08:27:57 PM 42.0431 -93.5681 360° North 259 298 23,000  Level Minneapolis Center
Mon 08:28:59 PM 42.1142 -93.5675 360° North 258 297 23,000  Level Minneapolis Center
Mon 08:30:00 PM 42.2006 -93.5586 North 260 299 23,000  Level Minneapolis Center
Mon 08:31:02 PM 42.2731 -93.5433 North 265 305 23,000  Level Minneapolis Center
Mon 08:32:00 PM 42.3525 -93.5443 359° North  Level FlightAware Approximate
Mon 08:32:04 PM 42.3308 -93.5342 359° North 264 304 23,000  Level Minneapolis Center
Mon 08:33:06 PM 42.4186 -93.5219 North 265 305 23,000  Level Minneapolis Center
Mon 08:34:08 PM 42.4911 -93.5125 North 265 305 23,000  Level Minneapolis Center
Mon 08:35:10 PM 42.5633 -93.5072 North 263 303 23,000  Level Minneapolis Center
Mon 08:36:11 PM 42.6361 -93.5008 North 263 303 23,000  Level Minneapolis Center
Mon 08:38:07 PM 42.7819 -93.4906 North 266 306 23,000  Level Chicago Center
Mon 08:39:08 PM 42.8569 -93.4903 360° North 269 310 23,000  Level Chicago Center
Mon 08:40:10 PM 42.9294 -93.4944 358° North 266 306 23,000  Level Chicago Center
Mon 08:41:12 PM 43.0200 -93.4956 359° North 270 311 23,000  Level Chicago Center
Mon 08:42:23 PM 43.1075 -93.4983 359° North 265 305 23,000  Level Minneapolis Center
Mon 08:43:25 PM 43.1822 -93.5003 359° North 268 308 23,000  Level Minneapolis Center
Mon 08:44:27 PM 43.2558 -93.5003 360° North 267 307 23,000  Level Minneapolis Center
Mon 08:45:29 PM 43.3294 -93.5019 359° North 267 307 23,000 -677 Level Minneapolis Center
Mon 08:46:31 PM 43.4039 -93.5039 359° North 267 307 21,600 -1,509 Descending Minneapolis Center
Mon 08:48:24 PM 43.5592 -93.4842 North 276 318 18,600 -1,200 Descending Chicago Center
Mon 08:49:26 PM 43.6353 -93.4647 10° North 276 318 18,100 -1,644 Descending Chicago Center
Mon 08:50:39 PM 43.7319 -93.4358 12° North 261 300 14,900 -1,867 Descending Minneapolis Center
Mon 08:51:41 PM 43.7931 -93.4381 358° North 228 262 13,900 -1,065 Descending Minneapolis Center
Mon 08:52:43 PM 43.8606 -93.4456 355° North 238 274 12,700 -1,200 Descending Minneapolis Center
Mon 08:53:46 PM 43.9400 -93.4464 360° North 241 277 11,400 -1,152 Descending Minneapolis Center
Mon 08:54:48 PM 43.9978 -93.4492 358° North 219 252 10,300 -1,113 Descending Minneapolis Center
Mon 08:55:50 PM 44.0600 -93.4525 358° North 210 242 9,100 -1,016 Descending Minneapolis Center
Mon 08:56:52 PM 44.1100 -93.4567 357° North 198 228 8,200 -871 Descending Minneapolis Center
Mon 08:57:54 PM 44.1636 -93.4592 358° North 192 221 7,300 -919 Descending Minneapolis Center
Mon 08:58:56 PM 44.2311 -93.4625 358° North 202 232 6,300 -823 Descending Minneapolis Center
Mon 08:59:58 PM 44.2919 -93.4628 360° North 218 251 5,600 -532 Descending Minneapolis Center
Mon 09:01:00 PM 44.3533 -93.4578 North 220 253 5,200 -397 Descending Minneapolis Center
Mon 09:02:14 PM 44.4122 -93.4575 360° North 214 246 4,700 -485 Descending Minneapolis Center
Mon 09:03:16 PM 44.4869 -93.4600 359° North 223 257 4,100 -339 Descending Minneapolis Center
Mon 09:04:18 PM 44.5467 -93.4631 358° North 216 249 4,000 -48 Descending Minneapolis Center
Mon 09:05:21 PM 44.6131 -93.4572 North 201 231 4,000  Level Minneapolis Center
Mon 09:06:23 PM 44.6689 -93.4381 14° North 204 235 4,000  Level Minneapolis Center
Mon 09:07:25 PM 44.7236 -93.4222 12° North 202 232 4,000  Level Minneapolis Center
Mon 09:08:27 PM 44.7797 -93.4067 11° North 203 234 4,000  Level Minneapolis Center
Mon 09:09:29 PM 44.8314 -93.3692 27° Northeast 211 243 4,000  Level Minneapolis Center
Mon 09:10:31 PM 44.8747 -93.3142 42° Northeast 207 238 4,000  Level Minneapolis Center
Mon 09:11:33 PM 44.9164 -93.2572 44° Northeast 208 239 4,000 -194 Level Minneapolis Center
Mon 09:12:35 PM 44.9539 -93.1947 50° Northeast 208 239 3,600 -774 Descending Minneapolis Center
Mon 09:13:37 PM 44.9803 -93.1264 61° Northeast 164 189 2,400 -1,065 Descending Minneapolis Center
Mon 09:14:39 PM 44.9611 -93.0864 124° Southeast 129 148 1,400 -629 Descending Minneapolis Center
Mon 09:15:41 PM 44.9383 -93.0661 148° Southeast 115 132 1,100 -290 Descending Minneapolis Center
Mon 09:17:00 PM 44.9333 -93.0500 47° Northeast  Level FlightAware Approximate

Login

Don't have an account? Register now (free) for customized features, flight alerts, and more!